Time;durP1;ratioP1;P1;durP2;ratioP2;P2;SDS_P1;SDS_P2;PMS_P1;PMS_P2;Temp;Humidity;BMP_temperature;BMP_pressure;BME280_temperature;BME280_humidity;BME280_pressure;Samples;Min_cycle;Max_cycle;Signal;HPM_P1;HPM_P2
2023/06/28 00:00:18;;;;;;;5.00;1.65;;;;;;;;;;4906451;28;20107;-82
2023/06/28 00:02:44;;;;;;;4.00;1.70;;;;;;;;;;4910806;28;20039;-83
2023/06/28 00:05:12;;;;;;;6.40;1.92;;;;;;;;;;4917701;28;20149;-83
2023/06/28 00:07:38;;;;;;;5.65;1.73;;;;;;;;;;4912945;28;20032;-83
2023/06/28 00:10:04;;;;;;;4.28;1.80;;;;;;;;;;4914197;28;20051;-84
2023/06/28 00:12:30;;;;;;;5.90;1.70;;;;;;;;;;4927800;29;20040;-82
2023/06/28 00:14:56;;;;;;;4.78;1.80;;;;;;;;;;4931038;28;20098;-83
2023/06/28 00:17:28;;;;;;;7.53;2.58;;;;;;;;;;4939058;28;20055;-83
2023/06/28 00:19:54;;;;;;;4.05;2.00;;;;;;;;;;4906229;28;20091;-84
2023/06/28 00:22:23;;;;;;;5.63;1.95;;;;;;;;;;4920004;29;20098;-83
2023/06/28 00:24:48;;;;;;;6.10;1.85;;;;;;;;;;4912491;29;20060;-83
2023/06/28 00:27:14;;;;;;;6.35;2.90;;;;;;;;;;4903368;28;20072;-83
2023/06/28 00:29:39;;;;;;;5.57;1.80;;;;;;;;;;4922077;29;20517;-83
2023/06/28 00:32:05;;;;;;;6.25;1.88;;;;;;;;;;4917269;28;20039;-84
2023/06/28 00:34:30;;;;;;;6.20;1.92;;;;;;;;;;4913706;28;20488;-84
2023/06/28 00:36:56;;;;;;;5.72;1.80;;;;;;;;;;4917555;28;20440;-83
2023/06/28 00:39:21;;;;;;;7.72;2.20;;;;;;;;;;4930358;29;20039;-83
2023/06/28 00:41:49;;;;;;;8.13;1.90;;;;;;;;;;4914827;28;20121;-84
2023/06/28 00:44:14;;;;;;;4.88;1.95;;;;;;;;;;4943377;28;20436;-84
2023/06/28 00:46:40;;;;;;;5.57;2.17;;;;;;;;;;4910456;28;20095;-84
2023/06/28 00:49:05;;;;;;;6.53;2.45;;;;;;;;;;4917688;28;20062;-83
2023/06/28 00:51:31;;;;;;;5.38;1.90;;;;;;;;;;4912431;29;20500;-83
2023/06/28 00:53:58;;;;;;;5.68;1.80;;;;;;;;;;4911302;28;20795;-83
2023/06/28 00:56:24;;;;;;;7.72;2.03;;;;;;;;;;4912825;29;20028;-83
2023/06/28 00:58:50;;;;;;;5.53;2.10;;;;;;;;;;4917871;29;20046;-83
2023/06/28 01:01:16;;;;;;;7.03;1.88;;;;;;;;;;4911755;28;20039;-84
2023/06/28 01:03:42;;;;;;;8.50;2.13;;;;;;;;;;4911717;28;20047;-83
2023/06/28 01:06:10;;;;;;;7.90;2.00;;;;;;;;;;4925420;28;20051;-83
2023/06/28 01:08:35;;;;;;;;;;;;;;;;;;4914211;28;20066;-83
2023/06/28 01:11:01;;;;;;;4.72;2.10;;;;;;;;;;4904195;28;19910;-83
2023/06/28 01:13:26;;;;;;;7.53;2.15;;;;;;;;;;4921852;28;20559;-83
2023/06/28 01:15:52;;;;;;;5.80;2.08;;;;;;;;;;4911768;29;20040;-83
2023/06/28 01:18:19;;;;;;;6.88;2.10;;;;;;;;;;4929200;29;20038;-84
2023/06/28 01:20:45;;;;;;;9.30;2.08;;;;;;;;;;4904215;28;20515;-84
2023/06/28 01:23:10;;;;;;;5.10;2.13;;;;;;;;;;4912454;28;20038;-83
2023/06/28 01:25:36;;;;;;;7.88;2.33;;;;;;;;;;4915559;28;20732;-84
2023/06/28 01:28:02;;;;;;;6.82;1.70;;;;;;;;;;4913471;28;20741;-83
2023/06/28 01:30:29;;;;;;;3.65;2.00;;;;;;;;;;4929049;28;20401;-84
2023/06/28 01:32:54;;;;;;;6.47;2.33;;;;;;;;;;4914405;28;20429;-83
2023/06/28 01:35:20;;;;;;;4.32;2.00;;;;;;;;;;4912231;28;20047;-81
2023/06/28 01:37:46;;;;;;;4.20;1.70;;;;;;;;;;4913692;28;20484;-83
2023/06/28 01:40:12;;;;;;;10.50;2.20;;;;;;;;;;4916225;28;20032;-82
2023/06/28 01:42:38;;;;;;;3.83;1.90;;;;;;;;;;4915730;28;20032;-83
2023/06/28 01:45:05;;;;;;;6.47;2.00;;;;;;;;;;4905169;28;20765;-83
2023/06/28 01:47:30;;;;;;;4.32;1.92;;;;;;;;;;4928136;28;20519;-84
2023/06/28 01:49:59;;;;;;;5.72;2.05;;;;;;;;;;4913131;28;20036;-83
2023/06/28 01:52:25;;;;;;;5.30;2.03;;;;;;;;;;4911416;28;20036;-83
2023/06/28 01:54:51;;;;;;;4.72;1.90;;;;;;;;;;4912822;29;20047;-83
2023/06/28 01:57:16;;;;;;;7.05;2.00;;;;;;;;;;4920151;29;20415;-83
2023/06/28 01:59:41;;;;;;;9.27;2.33;;;;;;;;;;4928921;29;20051;-83
2023/06/28 02:02:10;;;;;;;8.48;2.05;;;;;;;;;;4909722;28;20511;-84
2023/06/28 02:04:35;;;;;;;11.15;2.17;;;;;;;;;;4907694;28;20078;-83
2023/06/28 02:07:00;;;;;;;4.60;1.98;;;;;;;;;;4905189;29;20060;-83
2023/06/28 02:09:26;;;;;;;8.30;2.28;;;;;;;;;;4912105;28;20094;-83
2023/06/28 02:11:51;;;;;;;6.93;2.10;;;;;;;;;;4925338;28;20445;-83
2023/06/28 02:14:17;;;;;;;5.07;2.13;;;;;;;;;;4930410;28;20518;-83
2023/06/28 02:16:42;;;;;;;8.30;2.33;;;;;;;;;;4911959;28;20150;-83
2023/06/28 02:19:12;;;;;;;7.25;1.92;;;;;;;;;;4897195;28;20491;-83
2023/06/28 02:21:41;;;;;;;6.63;2.03;;;;;;;;;;4922398;28;20123;-84
2023/06/28 02:24:09;;;;;;;5.97;2.28;;;;;;;;;;4914177;29;20522;-83
2023/06/28 02:26:35;;;;;;;6.53;2.05;;;;;;;;;;4909153;28;20134;-84
2023/06/28 02:29:01;;;;;;;7.32;2.35;;;;;;;;;;4903527;28;20134;-83
2023/06/28 02:31:26;;;;;;;6.90;2.33;;;;;;;;;;4903293;28;20482;-84
2023/06/28 02:33:51;;;;;;;9.98;2.70;;;;;;;;;;4911515;29;20131;-84
2023/06/28 02:36:17;;;;;;;8.77;2.15;;;;;;;;;;4927203;28;20063;-83
2023/06/28 02:38:42;;;;;;;7.75;2.55;;;;;;;;;;4914120;28;20362;-83
2023/06/28 02:41:08;;;;;;;8.30;2.38;;;;;;;;;;4929424;28;20032;-83
2023/06/28 02:43:33;;;;;;;7.15;2.20;;;;;;;;;;4900750;28;20107;-84
2023/06/28 02:45:59;;;;;;;8.82;2.50;;;;;;;;;;4912249;28;20054;-83
2023/06/28 02:48:24;;;;;;;8.73;2.33;;;;;;;;;;4911872;29;20036;-83
2023/06/28 02:50:49;;;;;;;6.25;2.40;;;;;;;;;;4909315;29;20050;-83
2023/06/28 02:53:17;;;;;;;6.95;2.60;;;;;;;;;;4925701;28;20046;-82
2023/06/28 02:55:42;;;;;;;6.38;2.30;;;;;;;;;;4905539;28;20039;-83
2023/06/28 02:58:11;;;;;;;8.27;2.30;;;;;;;;;;4919403;28;20039;-83
2023/06/28 03:00:38;;;;;;;6.30;2.30;;;;;;;;;;4909321;28;20038;-83
2023/06/28 03:03:04;;;;;;;7.47;2.17;;;;;;;;;;4922731;28;20031;-84
2023/06/28 03:05:29;;;;;;;6.65;2.03;;;;;;;;;;4911873;28;20039;-84
2023/06/28 03:07:54;;;;;;;6.55;2.42;;;;;;;;;;4902553;28;20074;-83
2023/06/28 03:10:20;;;;;;;10.15;2.30;;;;;;;;;;4930188;28;20047;-83
2023/06/28 03:12:45;;;;;;;5.95;2.20;;;;;;;;;;4908340;28;20046;-83
2023/06/28 03:15:11;;;;;;;7.13;2.40;;;;;;;;;;4912972;28;21041;-83
2023/06/28 03:17:36;;;;;;;5.18;2.40;;;;;;;;;;4911952;28;20403;-84
2023/06/28 03:20:01;;;;;;;11.05;2.30;;;;;;;;;;4916100;28;20106;-84
2023/06/28 03:22:27;;;;;;;9.18;2.60;;;;;;;;;;4900282;28;20036;-83
2023/06/28 03:24:52;;;;;;;11.68;2.33;;;;;;;;;;4912015;29;20039;-84
2023/06/28 03:27:19;;;;;;;4.63;1.75;;;;;;;;;;4925926;28;20050;-85
2023/06/28 03:29:44;;;;;;;7.13;2.10;;;;;;;;;;4909787;28;20042;-84
2023/06/28 03:32:09;;;;;;;7.32;2.47;;;;;;;;;;4928111;28;20044;-84
2023/06/28 03:34:35;;;;;;;5.72;2.20;;;;;;;;;;4914390;28;20043;-83
2023/06/28 03:37:00;;;;;;;6.57;2.40;;;;;;;;;;4908669;28;20060;-83
2023/06/28 03:39:25;;;;;;;5.93;2.00;;;;;;;;;;4919409;28;20114;-83
2023/06/28 03:41:51;;;;;;;8.13;2.42;;;;;;;;;;4909117;29;20050;-84
2023/06/28 03:44:16;;;;;;;6.00;2.03;;;;;;;;;;4910331;28;20028;-83
2023/06/28 03:46:42;;;;;;;6.70;2.20;;;;;;;;;;4906440;29;20601;-84
2023/06/28 03:49:07;;;;;;;7.13;2.50;;;;;;;;;;4929753;28;20155;-83
2023/06/28 03:51:33;;;;;;;6.80;2.05;;;;;;;;;;4909783;28;20396;-83
2023/06/28 03:53:58;;;;;;;8.23;2.10;;;;;;;;;;4910306;28;20036;-84
2023/06/28 03:56:23;;;;;;;7.47;2.30;;;;;;;;;;4911355;29;20150;-83
2023/06/28 03:58:50;;;;;;;8.07;2.05;;;;;;;;;;4919832;28;20063;-83
2023/06/28 04:01:16;;;;;;;6.67;2.40;;;;;;;;;;4900557;29;20495;-84
2023/06/28 04:03:41;;;;;;;7.82;2.35;;;;;;;;;;4911187;28;20028;-83
2023/06/28 04:06:06;;;;;;;5.90;2.53;;;;;;;;;;4900751;29;20811;-83
2023/06/28 04:08:32;;;;;;;5.03;2.00;;;;;;;;;;4910332;28;20039;-83
2023/06/28 04:10:57;;;;;;;5.97;2.20;;;;;;;;;;4904313;28;20194;-83
2023/06/28 04:13:25;;;;;;;11.07;2.22;;;;;;;;;;4911010;29;20035;-83
2023/06/28 04:15:51;;;;;;;8.23;2.03;;;;;;;;;;4920701;29;20035;-83
2023/06/28 04:18:16;;;;;;;7.55;1.80;;;;;;;;;;4925289;28;20035;-83
2023/06/28 04:20:42;;;;;;;6.68;2.30;;;;;;;;;;4918547;28;20035;-84
2023/06/28 04:23:08;;;;;;;11.20;2.67;;;;;;;;;;4915334;28;20040;-83
2023/06/28 04:25:33;;;;;;;6.97;2.00;;;;;;;;;;4909704;28;20078;-83
2023/06/28 04:27:59;;;;;;;5.63;2.08;;;;;;;;;;4899627;28;20121;-83
2023/06/28 04:30:24;;;;;;;6.82;2.20;;;;;;;;;;4911284;28;20035;-83
2023/06/28 04:32:50;;;;;;;9.75;2.20;;;;;;;;;;4930419;29;20035;-84
2023/06/28 04:35:17;;;;;;;6.68;2.20;;;;;;;;;;4927163;28;20098;-83
2023/06/28 04:37:43;;;;;;;8.93;1.95;;;;;;;;;;4928686;28;20047;-84
2023/06/28 04:40:09;;;;;;;7.95;2.28;;;;;;;;;;4916034;28;20043;-84
2023/06/28 04:42:35;;;;;;;11.07;2.75;;;;;;;;;;4916779;29;20043;-83
2023/06/28 04:45:00;;;;;;;7.25;2.20;;;;;;;;;;4917568;28;20043;-78
2023/06/28 04:47:27;;;;;;;8.15;2.03;;;;;;;;;;4911280;28;20495;-78
2023/06/28 04:49:53;;;;;;;5.83;2.10;;;;;;;;;;4903946;29;20094;-78
2023/06/28 04:52:19;;;;;;;9.65;2.22;;;;;;;;;;4912346;28;20125;-79
2023/06/28 04:54:50;;;;;;;5.60;1.98;;;;;;;;;;4910244;28;20047;-79
2023/06/28 04:57:17;;;;;;;6.68;2.45;;;;;;;;;;4922370;29;20035;-78
2023/06/28 05:00:09;;;;;;;5.60;2.17;;;;;;;;;;4918067;28;20050;-79
2023/06/28 05:02:35;;;;;;;6.25;2.08;;;;;;;;;;4885509;29;20049;-78
2023/06/28 05:05:00;;;;;;;7.50;1.92;;;;;;;;;;4875804;29;20040;-79
2023/06/28 05:07:26;;;;;;;6.97;2.22;;;;;;;;;;4873404;29;20673;-78
2023/06/28 05:09:54;;;;;;;8.60;2.10;;;;;;;;;;4892164;29;20471;-79
2023/06/28 05:12:19;;;;;;;6.20;1.90;;;;;;;;;;4882363;29;20056;-79
2023/06/28 05:14:50;;;;;;;8.43;2.20;;;;;;;;;;4890560;29;20489;-80
2023/06/28 05:17:15;;;;;;;8.57;2.30;;;;;;;;;;4876751;29;20048;-79
2023/06/28 05:19:41;;;;;;;6.82;2.30;;;;;;;;;;4872571;29;20501;-82
2023/06/28 05:22:06;;;;;;;7.15;2.38;;;;;;;;;;4888220;29;20041;-82
2023/06/28 05:24:32;;;;;;;6.22;2.30;;;;;;;;;;4874414;29;20044;-81
2023/06/28 05:27:00;;;;;;;11.88;2.00;;;;;;;;;;4887182;29;20121;-81
2023/06/28 05:29:25;;;;;;;8.48;2.00;;;;;;;;;;4872325;29;20051;-80
2023/06/28 05:31:51;;;;;;;6.72;1.98;;;;;;;;;;4889078;29;20509;-82
2023/06/28 05:34:16;;;;;;;7.88;2.10;;;;;;;;;;4875094;29;20060;-81
2023/06/28 05:36:42;;;;;;;8.50;2.65;;;;;;;;;;4887483;29;20068;-81
2023/06/28 05:39:08;;;;;;;8.10;2.35;;;;;;;;;;4903265;28;20115;-82
2023/06/28 05:41:33;;;;;;;9.57;2.20;;;;;;;;;;4918603;28;20044;-82
2023/06/28 05:43:58;;;;;;;6.97;2.00;;;;;;;;;;4913970;28;20411;-82
2023/06/28 05:46:24;;;;;;;8.98;2.30;;;;;;;;;;4919504;28;20032;-80
2023/06/28 05:48:50;;;;;;;6.68;2.00;;;;;;;;;;4913250;29;20032;-80
2023/06/28 05:51:15;;;;;;;10.90;3.42;;;;;;;;;;4928790;28;21109;-80
2023/06/28 05:53:41;;;;;;;9.15;2.00;;;;;;;;;;4907274;28;20048;-81
2023/06/28 05:56:07;;;;;;;4.93;1.70;;;;;;;;;;4923861;28;20033;-78
2023/06/28 05:58:33;;;;;;;2.92;1.50;;;;;;;;;;4930369;28;20059;-78
2023/06/28 06:00:59;;;;;;;7.82;1.90;;;;;;;;;;4912349;28;20090;-79
2023/06/28 06:03:27;;;;;;;7.22;1.63;;;;;;;;;;4916429;29;20553;-79
2023/06/28 06:05:53;;;;;;;5.82;1.80;;;;;;;;;;4907985;29;20031;-79
2023/06/28 06:08:19;;;;;;;7.28;1.90;;;;;;;;;;4921460;28;20039;-79
2023/06/28 06:10:44;;;;;;;6.72;1.80;;;;;;;;;;4919665;28;20043;-79
2023/06/28 06:13:09;;;;;;;7.55;1.92;;;;;;;;;;4927221;28;20515;-79
2023/06/28 06:15:38;;;;;;;6.00;1.70;;;;;;;;;;4905219;28;20403;-78
2023/06/28 06:18:03;;;;;;;6.30;1.70;;;;;;;;;;4917969;29;20110;-81
2023/06/28 06:20:31;;;;;;;6.72;1.42;;;;;;;;;;4909746;28;20553;-81
2023/06/28 06:22:56;;;;;;;6.63;1.70;;;;;;;;;;4920769;29;20225;-80
2023/06/28 06:25:21;;;;;;;6.80;1.70;;;;;;;;;;4928076;28;20119;-80
2023/06/28 06:27:47;;;;;;;8.70;2.15;;;;;;;;;;4910936;28;20400;-79
2023/06/28 06:30:13;;;;;;;7.70;1.73;;;;;;;;;;4911260;28;20036;-79
2023/06/28 06:32:39;;;;;;;9.20;1.80;;;;;;;;;;4921799;28;20047;-79
2023/06/28 06:35:06;;;;;;;5.82;1.55;;;;;;;;;;4902747;29;20567;-79
2023/06/28 06:37:32;;;;;;;6.20;1.52;;;;;;;;;;4925129;28;20035;-78
2023/06/28 06:39:57;;;;;;;6.05;1.90;;;;;;;;;;4917858;28;20039;-78
2023/06/28 06:42:23;;;;;;;5.32;1.50;;;;;;;;;;4913471;29;20039;-78
2023/06/28 06:44:48;;;;;;;18.00;2.95;;;;;;;;;;4933079;28;20503;-78
2023/06/28 06:47:14;;;;;;;4.88;1.50;;;;;;;;;;4925696;28;20086;-78
2023/06/28 06:49:39;;;;;;;4.85;1.20;;;;;;;;;;4927824;28;20119;-79
2023/06/28 06:52:05;;;;;;;5.07;1.48;;;;;;;;;;4922438;28;20181;-79
2023/06/28 06:54:30;;;;;;;4.80;1.67;;;;;;;;;;4901716;28;20505;-79
2023/06/28 06:56:59;;;;;;;5.18;1.48;;;;;;;;;;4903713;28;20043;-78
2023/06/28 06:59:26;;;;;;;6.70;1.45;;;;;;;;;;4927300;29;20036;-78
2023/06/28 07:01:51;;;;;;;7.20;1.63;;;;;;;;;;4902954;29;20064;-78
2023/06/28 07:04:17;;;;;;;6.43;1.55;;;;;;;;;;4897953;29;20032;-79
2023/06/28 07:06:46;;;;;;;9.77;1.77;;;;;;;;;;4924493;28;21852;-79
2023/06/28 07:09:15;;;;;;;6.22;1.50;;;;;;;;;;4930695;28;20040;-78
2023/06/28 07:11:41;;;;;;;5.70;1.33;;;;;;;;;;4925531;28;20047;-78
2023/06/28 07:14:07;;;;;;;6.95;1.65;;;;;;;;;;4929449;28;20039;-78
2023/06/28 07:16:32;;;;;;;5.18;1.23;;;;;;;;;;4910246;28;20515;-78
2023/06/28 07:18:58;;;;;;;5.35;1.23;;;;;;;;;;4912830;29;20039;-78
2023/06/28 07:21:23;;;;;;;4.40;1.33;;;;;;;;;;4910740;29;20091;-79
2023/06/28 07:23:48;;;;;;;8.18;1.23;;;;;;;;;;4909046;28;20040;-79
2023/06/28 07:26:14;;;;;;;5.30;1.40;;;;;;;;;;4926826;28;20119;-77
2023/06/28 07:28:40;;;;;;;5.43;1.30;;;;;;;;;;4928292;28;20054;-77
2023/06/28 07:31:06;;;;;;;5.35;1.25;;;;;;;;;;4927260;28;20031;-77
2023/06/28 07:33:31;;;;;;;3.85;1.20;;;;;;;;;;4911066;28;20488;-78
2023/06/28 07:35:57;;;;;;;4.57;1.23;;;;;;;;;;4926057;28;20106;-78
2023/06/28 07:38:22;;;;;;;3.75;1.15;;;;;;;;;;4917950;29;20131;-78
2023/06/28 07:40:48;;;;;;;3.15;1.10;;;;;;;;;;4916120;28;20059;-79
2023/06/28 07:43:19;;;;;;;4.28;1.00;;;;;;;;;;4910852;28;20127;-80
2023/06/28 07:45:45;;;;;;;3.08;0.90;;;;;;;;;;4917085;28;20043;-80
2023/06/28 07:48:11;;;;;;;4.80;1.10;;;;;;;;;;4927004;28;20354;-80
2023/06/28 07:50:37;;;;;;;5.25;1.15;;;;;;;;;;4901565;28;20067;-79
2023/06/28 07:53:05;;;;;;;4.68;1.48;;;;;;;;;;4938084;28;20039;-80
2023/06/28 07:55:39;;;;;;;3.45;1.20;;;;;;;;;;4925740;28;20040;-79
2023/06/28 07:58:04;;;;;;;4.70;1.33;;;;;;;;;;4911464;28;20040;-80
2023/06/28 08:00:31;;;;;;;7.68;1.30;;;;;;;;;;4911923;28;20023;-79
2023/06/28 08:02:56;;;;;;;4.38;1.00;;;;;;;;;;4929900;28;20167;-79
2023/06/28 08:05:22;;;;;;;2.97;1.20;;;;;;;;;;4917513;28;20130;-79
2023/06/28 08:07:48;;;;;;;5.35;1.17;;;;;;;;;;4907214;28;20493;-79
2023/06/28 08:10:13;;;;;;;4.10;1.00;;;;;;;;;;4912036;28;20516;-79
2023/06/28 08:12:40;;;;;;;5.50;2.10;;;;;;;;;;4911048;28;20048;-79
2023/06/28 08:15:06;;;;;;;4.90;1.13;;;;;;;;;;4910871;29;20036;-80
2023/06/28 08:17:31;;;;;;;5.07;1.10;;;;;;;;;;4924485;28;20028;-79
2023/06/28 08:19:56;;;;;;;4.35;1.20;;;;;;;;;;4930558;28;20055;-79
2023/06/28 08:22:22;;;;;;;3.35;0.95;;;;;;;;;;4929981;29;20039;-79
2023/06/28 08:24:48;;;;;;;3.50;1.00;;;;;;;;;;4917038;29;20508;-80
2023/06/28 08:27:13;;;;;;;4.25;1.00;;;;;;;;;;4913157;28;20039;-78
2023/06/28 08:29:39;;;;;;;5.28;1.20;;;;;;;;;;4916690;28;20690;-80
2023/06/28 08:32:04;;;;;;;5.13;1.40;;;;;;;;;;4913542;28;20392;-80
2023/06/28 08:34:30;;;;;;;4.43;1.02;;;;;;;;;;4927575;28;20066;-79
2023/06/28 08:36:55;;;;;;;4.35;0.90;;;;;;;;;;4914974;29;20467;-80
2023/06/28 08:39:23;;;;;;;4.22;1.10;;;;;;;;;;4930007;28;20040;-79
2023/06/28 08:41:50;;;;;;;4.20;1.10;;;;;;;;;;4933115;28;20448;-79
2023/06/28 08:44:19;;;;;;;3.50;1.02;;;;;;;;;;4922436;29;20126;-80
2023/06/28 08:46:46;;;;;;;3.97;1.08;;;;;;;;;;4911043;28;20518;-80
2023/06/28 08:49:14;;;;;;;4.93;0.88;;;;;;;;;;4929387;28;20040;-80
2023/06/28 08:51:39;;;;;;;3.90;1.05;;;;;;;;;;4927144;28;20119;-79
2023/06/28 08:54:07;;;;;;;3.20;0.93;;;;;;;;;;4923122;28;20091;-80
2023/06/28 08:56:32;;;;;;;;;;;;;;;;;;4922054;28;20389;-79
2023/06/28 08:58:58;;;;;;;4.93;1.17;;;;;;;;;;4930344;28;19923;-79
2023/06/28 09:01:23;;;;;;;4.88;1.17;;;;;;;;;;4910363;29;20775;-80
2023/06/28 09:03:50;;;;;;;3.28;1.08;;;;;;;;;;4906228;29;20381;-80
2023/06/28 09:06:16;;;;;;;2.70;0.90;;;;;;;;;;4928252;28;20084;-80
2023/06/28 09:08:43;;;;;;;5.10;0.93;;;;;;;;;;4918401;28;20432;-80
2023/06/28 09:11:08;;;;;;;4.85;1.08;;;;;;;;;;4910476;28;20044;-77
2023/06/28 09:13:34;;;;;;;2.85;0.85;;;;;;;;;;4919593;28;20038;-80
2023/06/28 09:16:00;;;;;;;4.53;1.20;;;;;;;;;;4912489;28;20039;-80
2023/06/28 09:18:28;;;;;;;7.07;1.02;;;;;;;;;;4914865;29;20038;-79
2023/06/28 09:20:54;;;;;;;5.10;0.85;;;;;;;;;;4905879;29;20032;-79
2023/06/28 09:23:24;;;;;;;3.88;0.82;;;;;;;;;;4921848;28;20051;-80
2023/06/28 09:25:50;;;;;;;4.78;1.27;;;;;;;;;;4917597;29;20055;-79
2023/06/28 09:28:16;;;;;;;3.03;0.90;;;;;;;;;;4924915;28;20277;-79
2023/06/28 09:30:42;;;;;;;4.13;0.90;;;;;;;;;;4905422;29;20546;-80
2023/06/28 09:33:27;;;;;;;4.10;1.13;;;;;;;;;;4909024;28;20113;-79
2023/06/28 09:35:59;;;;;;;2.30;0.70;;;;;;;;;;4890555;29;20044;-79
2023/06/28 09:38:25;;;;;;;2.92;0.70;;;;;;;;;;4875663;29;20131;-79
2023/06/28 09:41:00;;;;;;;3.03;0.80;;;;;;;;;;4859397;29;20041;-79
2023/06/28 09:43:32;;;;;;;4.32;1.00;;;;;;;;;;4851956;29;20104;-78
2023/06/28 09:46:15;;;;;;;3.35;0.82;;;;;;;;;;4876578;29;20097;-79
2023/06/28 09:48:58;;;;;;;2.63;0.70;;;;;;;;;;4865477;29;20526;-79
2023/06/28 09:51:24;;;;;;;4.68;1.17;;;;;;;;;;4871100;29;20043;-77
2023/06/28 09:53:56;;;;;;;3.17;0.88;;;;;;;;;;4880508;29;20623;-79
2023/06/28 09:56:38;;;;;;;3.10;0.77;;;;;;;;;;4873927;29;20119;-79
2023/06/28 09:59:07;;;;;;;3.97;0.68;;;;;;;;;;4872757;29;20037;-79
2023/06/28 10:01:39;;;;;;;4.78;0.77;;;;;;;;;;4889371;29;20624;-80
2023/06/28 10:04:06;;;;;;;3.97;0.80;;;;;;;;;;4890312;29;20115;-79
2023/06/28 10:06:33;;;;;;;3.50;0.70;;;;;;;;;;4870377;29;20036;-80
2023/06/28 10:08:59;;;;;;;3.10;0.80;;;;;;;;;;4872119;29;20036;-79
2023/06/28 10:11:25;;;;;;;3.50;0.80;;;;;;;;;;4889131;29;20040;-79
2023/06/28 10:13:50;;;;;;;4.57;0.90;;;;;;;;;;4921894;29;20694;-79
2023/06/28 10:16:19;;;;;;;3.83;0.73;;;;;;;;;;4921983;28;20035;-79
2023/06/28 10:18:44;;;;;;;3.58;0.60;;;;;;;;;;4925528;28;20059;-79
2023/06/28 10:21:10;;;;;;;11.43;1.63;;;;;;;;;;4914208;28;20068;-79
2023/06/28 10:23:38;;;;;;;13.95;2.33;;;;;;;;;;4922311;28;20051;-78
2023/06/28 10:26:04;;;;;;;3.30;0.70;;;;;;;;;;4918123;28;20040;-79
2023/06/28 10:28:34;;;;;;;3.63;1.10;;;;;;;;;;4909945;28;20047;-79
2023/06/28 10:31:00;;;;;;;5.22;1.00;;;;;;;;;;4925411;28;20084;-78
2023/06/28 10:33:27;;;;;;;34.10;4.75;;;;;;;;;;4914285;28;20124;-81
2023/06/28 10:35:55;;;;;;;5.75;0.80;;;;;;;;;;4926629;29;20182;-80
2023/06/28 10:38:20;;;;;;;5.85;0.80;;;;;;;;;;4927720;29;20036;-80
2023/06/28 10:40:46;;;;;;;4.75;1.10;;;;;;;;;;4902733;29;20051;-82
2023/06/28 10:43:24;;;;;;;7.85;1.65;;;;;;;;;;4928037;28;20128;-81
2023/06/28 10:45:51;;;;;;;4.18;1.08;;;;;;;;;;4926927;28;20035;-81
2023/06/28 10:48:23;;;;;;;4.93;1.10;;;;;;;;;;4919700;28;20070;-80
2023/06/28 10:50:50;;;;;;;3.55;0.88;;;;;;;;;;4912139;28;20114;-81
2023/06/28 10:53:27;;;;;;;2.67;0.68;;;;;;;;;;4907921;28;20120;-79
2023/06/28 10:56:12;;;;;;;3.75;0.80;;;;;;;;;;4923563;28;20050;-80
2023/06/28 10:58:44;;;;;;;3.63;0.73;;;;;;;;;;4909680;28;20043;-80
2023/06/28 11:01:26;;;;;;;4.07;0.85;;;;;;;;;;4923835;28;20048;-81
2023/06/28 11:03:52;;;;;;;3.45;0.63;;;;;;;;;;4926160;28;20059;-81
2023/06/28 11:06:17;;;;;;;3.65;0.77;;;;;;;;;;4916443;29;20067;-81
2023/06/28 11:08:45;;;;;;;4.00;0.77;;;;;;;;;;4927214;28;20099;-80
2023/06/28 11:11:30;;;;;;;4.03;0.95;;;;;;;;;;4919769;28;20110;-81
2023/06/28 11:13:56;;;;;;;15.88;1.15;;;;;;;;;;4917635;28;20425;-80
2023/06/28 11:16:22;;;;;;;3.28;0.75;;;;;;;;;;4907377;29;20042;-81
2023/06/28 11:18:52;;;;;;;4.03;0.68;;;;;;;;;;4914060;28;20046;-80
2023/06/28 11:21:22;;;;;;;3.20;0.80;;;;;;;;;;4927134;28;20066;-81
2023/06/28 11:23:47;;;;;;;3.72;1.15;;;;;;;;;;4918939;28;20035;-81
2023/06/28 11:26:19;;;;;;;4.55;0.80;;;;;;;;;;4926468;28;20832;-80
2023/06/28 11:28:54;;;;;;;3.30;0.82;;;;;;;;;;4910738;28;20106;-81
2023/06/28 11:31:24;;;;;;;3.97;0.80;;;;;;;;;;4917802;29;20930;-80
2023/06/28 11:33:52;;;;;;;3.17;0.82;;;;;;;;;;4922874;29;20064;-80
2023/06/28 11:36:42;;;;;;;4.03;1.00;;;;;;;;;;4924079;28;20058;-81
2023/06/28 11:39:11;;;;;;;2.13;0.80;;;;;;;;;;4830507;29;20054;-80
2023/06/28 11:41:36;;;;;;;4.25;0.70;;;;;;;;;;4833938;29;20499;-81
2023/06/28 11:44:04;;;;;;;4.20;0.70;;;;;;;;;;4827298;29;20041;-81
2023/06/28 11:46:32;;;;;;;3.53;0.60;;;;;;;;;;4817683;29;20572;-79
2023/06/28 11:49:01;;;;;;;2.08;0.60;;;;;;;;;;4833911;29;20098;-79
2023/06/28 11:51:26;;;;;;;3.70;0.82;;;;;;;;;;4829643;29;20132;-79
2023/06/28 11:53:55;;;;;;;5.07;0.90;;;;;;;;;;4824788;29;20138;-79
2023/06/28 11:56:37;;;;;;;3.10;0.82;;;;;;;;;;4847630;29;20529;-79
2023/06/28 11:59:15;;;;;;;3.22;1.00;;;;;;;;;;4852799;29;20168;-79
2023/06/28 12:01:41;;;;;;;4.03;0.93;;;;;;;;;;4834156;29;20049;-79
2023/06/28 12:04:36;;;;;;;2.70;0.82;;;;;;;;;;4831947;29;20033;-79
2023/06/28 12:07:06;;;;;;;3.58;0.90;;;;;;;;;;4783753;29;20388;-81
2023/06/28 12:09:36;;;;;;;4.78;0.80;;;;;;;;;;4765381;29;20046;-81
2023/06/28 12:12:05;;;;;;;3.85;0.85;;;;;;;;;;4781670;29;20468;-79
2023/06/28 12:14:40;;;;;;;2.63;0.68;;;;;;;;;;4783876;29;20473;-79
2023/06/28 12:17:06;;;;;;;3.00;0.80;;;;;;;;;;4861197;29;20508;-80
2023/06/28 12:19:33;;;;;;;3.75;0.70;;;;;;;;;;4841961;29;20044;-80
2023/06/28 12:22:22;;;;;;;3.55;0.80;;;;;;;;;;4853924;29;20084;-81
2023/06/28 12:24:48;;;;;;;6.40;0.93;;;;;;;;;;4786232;29;20042;-80
2023/06/28 12:27:13;;;;;;;2.40;0.65;;;;;;;;;;4794495;29;20043;-81
2023/06/28 12:29:42;;;;;;;4.10;0.80;;;;;;;;;;4777936;29;20057;-80
2023/06/28 12:32:10;;;;;;;3.13;0.80;;;;;;;;;;4777386;29;20143;-80
2023/06/28 12:34:38;;;;;;;2.92;0.70;;;;;;;;;;4782170;29;20518;-80
2023/06/28 12:37:12;;;;;;;3.47;1.00;;;;;;;;;;4779547;29;20042;-81
2023/06/28 12:39:38;;;;;;;1.77;0.63;;;;;;;;;;4794776;29;20531;-81
2023/06/28 12:42:11;;;;;;;4.18;0.90;;;;;;;;;;4795711;29;20118;-80
2023/06/28 12:44:58;;;;;;;3.17;0.90;;;;;;;;;;4832518;29;20045;-81
2023/06/28 12:47:25;;;;;;;2.88;0.80;;;;;;;;;;4846472;29;20294;-80
2023/06/28 12:49:51;;;;;;;3.28;0.88;;;;;;;;;;4848470;29;20384;-80
2023/06/28 12:52:17;;;;;;;9.65;1.85;;;;;;;;;;4836747;29;20158;-81
2023/06/28 12:54:44;;;;;;;3.50;0.80;;;;;;;;;;4836657;29;20620;-80
2023/06/28 12:57:09;;;;;;;3.50;1.03;;;;;;;;;;4829359;29;20524;-80
2023/06/28 12:59:35;;;;;;;2.75;0.77;;;;;;;;;;4818200;29;20291;-82
2023/06/28 13:02:01;;;;;;;5.53;0.90;;;;;;;;;;4890540;28;20190;-81
2023/06/28 13:04:38;;;;;;;3.40;0.90;;;;;;;;;;4906647;28;20055;-82
2023/06/28 13:07:04;;;;;;;4.88;0.88;;;;;;;;;;4913245;28;20048;-83
2023/06/28 13:09:30;;;;;;;3.17;1.02;;;;;;;;;;4914321;28;20054;-82
2023/06/28 13:11:56;;;;;;;3.05;0.98;;;;;;;;;;4930933;28;20052;-81
2023/06/28 13:14:22;;;;;;;4.38;0.90;;;;;;;;;;4921273;29;20549;-82
2023/06/28 13:16:47;;;;;;;3.92;1.00;;;;;;;;;;4918381;28;20032;-82
2023/06/28 13:19:25;;;;;;;3.75;0.90;;;;;;;;;;4902693;28;20373;-82
2023/06/28 13:21:51;;;;;;;3.25;0.98;;;;;;;;;;4909630;29;20381;-83
2023/06/28 13:24:19;;;;;;;4.90;1.00;;;;;;;;;;4914402;29;20106;-83
2023/06/28 13:26:45;;;;;;;3.03;0.88;;;;;;;;;;4905805;28;20066;-83
2023/06/28 13:29:11;;;;;;;4.80;0.90;;;;;;;;;;4927496;28;20086;-83
2023/06/28 13:31:36;;;;;;;2.78;0.80;;;;;;;;;;4903670;28;20048;-80
2023/06/28 13:34:02;;;;;;;5.03;0.80;;;;;;;;;;4917178;29;20073;-80
2023/06/28 13:36:27;;;;;;;2.75;0.88;;;;;;;;;;4901721;29;20044;-81
2023/06/28 13:38:53;;;;;;;9.32;1.52;;;;;;;;;;4923688;29;20098;-81
2023/06/28 13:41:19;;;;;;;7.30;1.33;;;;;;;;;;4911710;29;20040;-81
2023/06/28 13:43:45;;;;;;;5.22;1.02;;;;;;;;;;4912998;28;20047;-81
2023/06/28 13:46:10;;;;;;;2.88;0.90;;;;;;;;;;4921145;28;20035;-82
2023/06/28 13:48:36;;;;;;;4.55;0.80;;;;;;;;;;4913282;28;20388;-81
2023/06/28 13:51:04;;;;;;;3.88;1.05;;;;;;;;;;4928165;28;20078;-82
2023/06/28 13:53:29;;;;;;;1.88;0.68;;;;;;;;;;4922008;28;20527;-82
2023/06/28 13:55:55;;;;;;;4.63;0.70;;;;;;;;;;4929803;29;20036;-82
2023/06/28 13:58:20;;;;;;;3.90;0.80;;;;;;;;;;4920446;28;20039;-82
2023/06/28 14:00:47;;;;;;;2.60;0.60;;;;;;;;;;4911593;28;20043;-82
2023/06/28 14:03:13;;;;;;;3.75;0.70;;;;;;;;;;4913836;28;20058;-82
2023/06/28 14:05:38;;;;;;;4.50;0.77;;;;;;;;;;4915060;28;20040;-82
2023/06/28 14:08:04;;;;;;;2.15;0.60;;;;;;;;;;4917639;28;20038;-83
2023/06/28 14:10:29;;;;;;;3.58;0.90;;;;;;;;;;4910564;28;20058;-82
2023/06/28 14:12:54;;;;;;;3.10;0.90;;;;;;;;;;4923536;28;20032;-81
2023/06/28 14:15:21;;;;;;;2.33;0.70;;;;;;;;;;4926846;28;20079;-82
2023/06/28 14:17:47;;;;;;;3.80;0.80;;;;;;;;;;4913889;28;20515;-82
2023/06/28 14:20:12;;;;;;;3.08;0.80;;;;;;;;;;4911182;28;20102;-82
2023/06/28 14:22:38;;;;;;;6.80;0.98;;;;;;;;;;4918481;28;20048;-82
2023/06/28 14:25:07;;;;;;;5.65;1.10;;;;;;;;;;4928877;28;20040;-82
2023/06/28 14:27:32;;;;;;;3.13;0.80;;;;;;;;;;4924513;28;20194;-82
2023/06/28 14:29:58;;;;;;;2.92;0.80;;;;;;;;;;4918017;28;20091;-81
2023/06/28 14:32:32;;;;;;;3.60;0.90;;;;;;;;;;4927424;28;20039;-83
2023/06/28 14:34:57;;;;;;;3.08;0.85;;;;;;;;;;4909735;28;20071;-81
2023/06/28 14:37:25;;;;;;;4.07;1.08;;;;;;;;;;4910665;29;20520;-82
2023/06/28 14:39:51;;;;;;;3.28;1.02;;;;;;;;;;4903333;29;20094;-82
2023/06/28 14:42:16;;;;;;;4.65;0.80;;;;;;;;;;4903233;28;20039;-82